Dover Township, New Jersey
Current Conditions -  °F | °C
As of 9:15 PM on Thursday 18 Dec 2014 (Local Time) from KMJX Reporting Station
Clear Clear  
Wind Chill: 28°   Ceiling: Unl
Heat Index: 34°   Visibility: 10mi
Dew Point: 25°   Wind: 7mph
Humidity: 70%   Direction: 270°W
Pressure: 30.02"   Gusts: NA
Location:  39.9821°N, 74.1609°W
Report Text: KMJX 190215Z AUTO 27006KT 10SM CLR 01/M04 A3002 RMK AO1
Loading
Personal Weather Stations






























Interactive Weather Map New forecast layout! Learn more

10-Day Weather Forecast

Advertisements
Track Severe Weather on mobile